createdAt,value
2019-06-26T00:01:13.872Z,100814.47
2019-06-26T00:04:19.763Z,100806.48
2019-06-26T00:07:24.492Z,100811.21
2019-06-26T00:10:29.941Z,100816.84
2019-06-26T00:13:35.334Z,100817.47
2019-06-26T00:16:40.599Z,100819.20
2019-06-26T00:19:45.695Z,100819.34
2019-06-26T00:22:50.561Z,100827.59
2019-06-26T00:25:55.413Z,100830.30
2019-06-26T00:29:00.145Z,100831.28
2019-06-26T00:32:04.889Z,100833.13
2019-06-26T00:35:10.417Z,100837.75
2019-06-26T00:38:15.736Z,100838.48
2019-06-26T00:41:20.927Z,100842.77
2019-06-26T00:44:25.661Z,100842.77
2019-06-26T00:47:30.402Z,100849.75
2019-06-26T00:50:35.462Z,100852.72
2019-06-26T00:53:40.216Z,100847.94
2019-06-26T00:56:44.996Z,100848.96
2019-06-26T00:59:49.736Z,100851.49
2019-06-26T01:02:54.533Z,100845.72
2019-06-26T01:05:59.644Z,100846.71
2019-06-26T01:09:06.816Z,100852.05
2019-06-26T01:15:36.610Z,100856.63
2019-06-26T01:18:41.316Z,100849.65
2019-06-26T01:21:46.053Z,100853.00
2019-06-26T01:24:50.802Z,100856.95
2019-06-26T01:27:55.615Z,100861.91
2019-06-26T01:31:00.365Z,100871.72
2019-06-26T01:34:05.231Z,100871.57
2019-06-26T01:37:09.976Z,100868.23
2019-06-26T01:40:15.653Z,100868.28
2019-06-26T01:43:21.069Z,100862.93
2019-06-26T01:46:26.208Z,100866.48
2019-06-26T01:49:30.965Z,100863.42
2019-06-26T01:52:35.869Z,100873.16
2019-06-26T01:55:41.190Z,100875.13
2019-06-26T01:58:46.298Z,100871.57
2019-06-26T02:01:51.303Z,100882.03
2019-06-26T02:04:56.775Z,100882.85
2019-06-26T02:08:01.630Z,100877.23
2019-06-26T02:11:07.047Z,100879.69
2019-06-26T02:14:11.873Z,100884.96
2019-06-26T02:17:16.922Z,100884.75
2019-06-26T02:20:21.747Z,100885.03
2019-06-26T02:23:26.898Z,100885.30
2019-06-26T02:26:31.651Z,100875.38
2019-06-26T02:29:36.489Z,100877.92
2019-06-26T02:32:41.318Z,100875.10
2019-06-26T02:35:46.405Z,100871.05
2019-06-26T02:38:51.268Z,100873.51
2019-06-26T02:41:57.052Z,100879.97
2019-06-26T02:45:02.777Z,100876.91
2019-06-26T02:48:07.752Z,100875.80
2019-06-26T02:51:12.501Z,100881.90
2019-06-26T02:54:17.235Z,100884.87
2019-06-26T02:57:22.385Z,100877.89
2019-06-26T03:00:27.407Z,100871.88
2019-06-26T03:03:32.455Z,100874.09
2019-06-26T03:06:37.656Z,100875.59
2019-06-26T03:09:42.405Z,100881.59
2019-06-26T03:12:47.186Z,100878.19
2019-06-26T03:15:52.048Z,100883.00
2019-06-26T03:18:57.151Z,100882.69
2019-06-26T03:22:02.134Z,100886.11
2019-06-26T03:25:08.147Z,100881.63
2019-06-26T03:28:13.097Z,100891.02
2019-06-26T03:31:20.700Z,100890.97
2019-06-26T03:34:25.458Z,100886.28
2019-06-26T03:37:30.584Z,100883.86
2019-06-26T03:40:35.484Z,100891.70
2019-06-26T03:43:40.250Z,100899.29
2019-06-26T03:46:45.076Z,100889.41
2019-06-26T03:49:50.049Z,100898.11
2019-06-26T03:52:54.865Z,100899.56
2019-06-26T03:55:59.934Z,100897.23
2019-06-26T03:59:05.122Z,100896.50
2019-06-26T04:02:09.874Z,100905.34
2019-06-26T04:05:14.732Z,100909.23
2019-06-26T04:08:19.456Z,100909.09
2019-06-26T04:11:24.508Z,100916.70
2019-06-26T04:14:29.500Z,100921.86
2019-06-26T04:17:34.528Z,100919.66
2019-06-26T04:20:39.358Z,100922.46
2019-06-26T04:23:44.217Z,100926.50
2019-06-26T04:26:49.646Z,100924.91
2019-06-26T04:29:54.742Z,100927.48
2019-06-26T04:33:00.029Z,100939.38
2019-06-26T04:36:04.832Z,100934.58
2019-06-26T04:39:09.784Z,100942.86
2019-06-26T04:42:14.927Z,100945.05
2019-06-26T04:45:20.200Z,100942.58
2019-06-26T04:48:25.367Z,100949.05
2019-06-26T04:51:30.386Z,100950.38
2019-06-26T04:54:35.156Z,100960.19
2019-06-26T04:57:40.687Z,100957.44
2019-06-26T05:00:46.081Z,100968.72
2019-06-26T05:03:51.206Z,100969.58
2019-06-26T05:06:56.336Z,100963.55
2019-06-26T05:10:01.293Z,100964.14
2019-06-26T05:13:06.516Z,100964.47
2019-06-26T05:16:15.648Z,100968.98
2019-06-26T05:19:17.979Z,100966.86
2019-06-26T05:22:23.181Z,100972.11
2019-06-26T05:25:28.367Z,100970.72
2019-06-26T05:28:33.490Z,100981.24
2019-06-26T05:31:39.827Z,100975.92
2019-06-26T05:34:45.185Z,100986.41
2019-06-26T05:37:50.092Z,100984.77
2019-06-26T05:40:55.259Z,100985.21
2019-06-26T05:44:00.689Z,100990.81
2019-06-26T05:47:07.161Z,100994.64
2019-06-26T05:50:13.120Z,101002.42
2019-06-26T05:53:17.900Z,100998.48
2019-06-26T05:56:22.640Z,100998.02
2019-06-26T05:59:27.715Z,101003.70
2019-06-26T06:02:32.910Z,101000.16
2019-06-26T06:05:38.110Z,101000.97
2019-06-26T06:08:43.170Z,101006.19
2019-06-26T06:11:48.329Z,101002.49
2019-06-26T06:14:53.074Z,101000.92
2019-06-26T06:17:57.896Z,101006.98
2019-06-26T06:21:02.968Z,101009.76
2019-06-26T06:24:08.057Z,101012.70
2019-06-26T06:27:13.112Z,101003.73
2019-06-26T06:30:18.480Z,101009.34
2019-06-26T06:33:23.262Z,101010.06
2019-06-26T06:36:28.111Z,101010.82
2019-06-26T06:39:33.130Z,101009.12
2019-06-26T06:42:38.105Z,101003.55
2019-06-26T06:45:43.066Z,101010.16
2019-06-26T06:48:47.815Z,101007.83
2019-06-26T06:51:52.898Z,101012.41
2019-06-26T06:54:57.679Z,101017.78
2019-06-26T06:58:02.921Z,101019.85
2019-06-26T07:01:07.990Z,101021.11
2019-06-26T07:04:12.733Z,101024.60
2019-06-26T07:07:17.861Z,101031.05
2019-06-26T07:10:22.769Z,101031.50
2019-06-26T07:13:27.968Z,101036.08
2019-06-26T07:16:32.723Z,101041.95
2019-06-26T07:19:37.791Z,101047.47
2019-06-26T07:22:42.560Z,101047.61
2019-06-26T07:25:47.321Z,101048.28
2019-06-26T07:28:52.601Z,101048.78
2019-06-26T07:31:58.808Z,101053.31
2019-06-26T07:35:04.017Z,101049.48
2019-06-26T07:38:09.547Z,101050.67
2019-06-26T07:41:14.919Z,101048.38
2019-06-26T07:44:20.012Z,101052.65
2019-06-26T07:47:41.547Z,101052.62
2019-06-26T07:50:32.720Z,101057.02
2019-06-26T07:53:37.679Z,101061.50
2019-06-26T07:56:42.773Z,101056.77
2019-06-26T07:59:47.604Z,101061.88
2019-06-26T08:02:52.677Z,101062.05
2019-06-26T08:05:57.451Z,101060.34
2019-06-26T08:09:02.638Z,101067.81
2019-06-26T08:12:08.802Z,101060.09
2019-06-26T08:15:15.280Z,101060.54
2019-06-26T08:18:20.014Z,101056.12
2019-06-26T08:21:24.839Z,101062.23
2019-06-26T08:24:29.978Z,101062.99
2019-06-26T08:27:35.203Z,101057.78
2019-06-26T08:30:40.069Z,101057.20
2019-06-26T08:33:44.853Z,101057.34
2019-06-26T08:36:49.839Z,101058.83
2019-06-26T08:39:54.591Z,101054.31
2019-06-26T08:42:59.765Z,101064.09
2019-06-26T08:46:04.582Z,101056.28
2019-06-26T08:49:24.333Z,101050.45
2019-06-26T08:52:16.818Z,101060.10
2019-06-26T08:55:22.696Z,101055.07
2019-06-26T08:58:28.558Z,101053.59
2019-06-26T09:01:33.316Z,101056.30
2019-06-26T09:04:38.058Z,101055.14
2019-06-26T09:07:42.843Z,101054.45
2019-06-26T09:10:47.642Z,101046.61
2019-06-26T09:13:52.724Z,101044.77
2019-06-26T09:16:57.588Z,101051.07
2019-06-26T09:20:02.502Z,101053.41
2019-06-26T09:23:07.481Z,101045.42
2019-06-26T09:26:12.601Z,101051.01
2019-06-26T09:29:17.777Z,101046.53
2019-06-26T09:32:22.540Z,101047.27
2019-06-26T09:35:28.310Z,101044.58
2019-06-26T09:38:33.035Z,101051.44
2019-06-26T09:41:37.818Z,101055.91
2019-06-26T09:44:42.664Z,101048.68
2019-06-26T09:47:47.736Z,101044.55
2019-06-26T09:50:52.995Z,101046.90
2019-06-26T09:53:59.046Z,101039.52
2019-06-26T09:57:03.868Z,101050.24
2019-06-26T10:00:11.355Z,101043.27
2019-06-26T10:03:16.267Z,101040.30
2019-06-26T10:06:21.030Z,101034.42
2019-06-26T10:09:25.828Z,101033.03
2019-06-26T10:12:30.573Z,101038.43
2019-06-26T10:15:35.369Z,101052.81
2019-06-26T10:18:40.482Z,101041.91
2019-06-26T10:21:45.214Z,101037.49
2019-06-26T10:24:50.269Z,101038.00
2019-06-26T10:27:56.282Z,101031.91
2019-06-26T10:31:01.356Z,101035.05
2019-06-26T10:34:09.818Z,101028.70
2019-06-26T10:37:12.866Z,101035.20
2019-06-26T10:40:17.786Z,101033.99
2019-06-26T10:43:22.743Z,101032.31
2019-06-26T10:46:28.082Z,101026.48
2019-06-26T10:49:33.085Z,101026.20
2019-06-26T10:52:37.878Z,101032.09
2019-06-26T10:55:42.711Z,101028.84
2019-06-26T10:58:47.439Z,101027.08
2019-06-26T11:01:52.270Z,101025.78
2019-06-26T11:04:57.366Z,101027.09
2019-06-26T11:08:02.450Z,101030.65
2019-06-26T11:11:07.202Z,101023.36
2019-06-26T11:14:12.248Z,101012.59
2019-06-26T11:17:17.477Z,101014.96
2019-06-26T11:20:22.370Z,101011.43
2019-06-26T11:23:27.557Z,101007.34
2019-06-26T11:26:32.347Z,101013.55
2019-06-26T11:29:37.751Z,100999.00
2019-06-26T11:32:42.486Z,101000.44
2019-06-26T11:35:47.339Z,101001.48
2019-06-26T11:38:52.181Z,101002.80
2019-06-26T11:41:56.959Z,100998.75
2019-06-26T11:45:01.790Z,101002.11
2019-06-26T11:48:06.680Z,100992.13
2019-06-26T11:51:11.414Z,100994.45
2019-06-26T11:54:18.070Z,100994.27
2019-06-26T11:57:22.923Z,100987.59
2019-06-26T12:00:28.038Z,100986.17
2019-06-26T12:03:33.460Z,100982.35
2019-06-26T12:06:38.867Z,100984.05
2019-06-26T12:09:43.902Z,100979.63
2019-06-26T12:12:48.723Z,100980.83
2019-06-26T12:15:54.444Z,100970.09
2019-06-26T12:18:59.202Z,100974.14
2019-06-26T12:22:04.136Z,100968.06
2019-06-26T12:25:10.287Z,100967.50
2019-06-26T12:28:15.057Z,100973.16
2019-06-26T12:31:20.095Z,100965.86
2019-06-26T12:34:24.842Z,100965.66
2019-06-26T12:37:37.768Z,100967.86
2019-06-26T12:40:37.243Z,100969.36
2019-06-26T12:43:42.084Z,100964.04
2019-06-26T12:46:46.885Z,100962.06
2019-06-26T12:49:51.901Z,100958.56
2019-06-26T12:52:56.652Z,100954.96
2019-06-26T12:56:01.909Z,100953.62
2019-06-26T12:59:06.597Z,100945.08
2019-06-26T13:02:11.348Z,100940.21
2019-06-26T13:05:16.833Z,100941.05
2019-06-26T13:08:21.891Z,100943.58
2019-06-26T13:11:27.172Z,100942.11
2019-06-26T13:14:31.962Z,100939.67
2019-06-26T13:17:37.018Z,100942.89
2019-06-26T13:20:52.323Z,100934.80
2019-06-26T13:23:48.683Z,100931.64
2019-06-26T13:26:54.681Z,100932.79
2019-06-26T13:29:59.490Z,100928.70
2019-06-26T13:33:04.449Z,100932.66
2019-06-26T13:36:09.565Z,100920.89
2019-06-26T13:39:14.935Z,100916.98
2019-06-26T13:42:20.099Z,100924.76
2019-06-26T13:45:24.918Z,100916.52
2019-06-26T13:48:29.661Z,100917.96
2019-06-26T13:51:35.061Z,100911.59
2019-06-26T13:54:40.369Z,100909.00
2019-06-26T13:57:45.146Z,100907.81
2019-06-26T14:00:50.156Z,100904.73
2019-06-26T14:03:55.873Z,100900.61
2019-06-26T14:07:00.642Z,100898.52
2019-06-26T14:10:05.875Z,100902.50
2019-06-26T14:13:10.714Z,100895.88
2019-06-26T14:16:16.586Z,100893.28
2019-06-26T14:19:21.411Z,100888.95
2019-06-26T14:22:26.204Z,100887.27
2019-06-26T14:25:31.530Z,100885.45
2019-06-26T14:28:39.361Z,100880.11
2019-06-26T14:31:44.464Z,100887.70
2019-06-26T14:34:49.516Z,100872.73
2019-06-26T14:37:54.869Z,100866.48
2019-06-26T14:41:00.227Z,100867.44
2019-06-26T14:44:05.159Z,100866.69
2019-06-26T14:47:10.547Z,100866.42
2019-06-26T14:50:15.563Z,100871.30
2019-06-26T14:53:20.940Z,100862.34
2019-06-26T14:56:25.680Z,100853.34
2019-06-26T14:59:30.446Z,100851.95
2019-06-26T15:02:35.257Z,100861.17
2019-06-26T15:05:40.310Z,100855.82
2019-06-26T15:08:45.674Z,100859.73
2019-06-26T15:11:50.502Z,100849.96
2019-06-26T15:14:55.254Z,100846.20
2019-06-26T15:18:00.095Z,100852.25
2019-06-26T15:21:04.989Z,100851.46
2019-06-26T15:24:10.024Z,100850.06
2019-06-26T15:27:14.746Z,100844.85
2019-06-26T15:30:19.953Z,100846.55
2019-06-26T15:33:24.894Z,100842.50
2019-06-26T15:36:29.930Z,100832.48
2019-06-26T15:39:34.944Z,100833.30
2019-06-26T15:42:39.755Z,100831.58
2019-06-26T15:45:44.599Z,100827.46
2019-06-26T15:48:50.515Z,100826.20
2019-06-26T15:51:56.305Z,100821.20
2019-06-26T15:55:01.139Z,100822.45
2019-06-26T15:58:05.926Z,100824.78
2019-06-26T16:01:10.777Z,100821.60
2019-06-26T16:04:16.352Z,100822.92
2019-06-26T16:07:21.235Z,100819.49
2019-06-26T16:10:26.005Z,100817.34
2019-06-26T16:13:30.835Z,100815.84
2019-06-26T16:16:37.660Z,100810.89
2019-06-26T16:19:42.386Z,100815.84
2019-06-26T16:22:47.161Z,100815.80
2019-06-26T16:25:52.314Z,100818.52
2019-06-26T16:28:57.098Z,100800.98
2019-06-26T16:32:02.138Z,100810.83
2019-06-26T16:35:11.990Z,100804.06
2019-06-26T16:38:14.727Z,100809.28
2019-06-26T16:41:20.350Z,100807.53
2019-06-26T16:44:25.087Z,100803.17
2019-06-26T16:47:30.259Z,100804.23
2019-06-26T16:50:35.428Z,100804.33
2019-06-26T16:53:40.559Z,100798.19
2019-06-26T16:56:45.921Z,100793.95
2019-06-26T16:59:51.172Z,100798.88
2019-06-26T17:02:56.351Z,100793.82
2019-06-26T17:06:01.401Z,100792.00
2019-06-26T17:09:08.367Z,100789.59
2019-06-26T17:12:13.145Z,100787.22
2019-06-26T17:15:18.348Z,100785.92
2019-06-26T17:18:23.529Z,100784.66
2019-06-26T17:21:28.335Z,100780.80
2019-06-26T17:24:33.960Z,100778.55
2019-06-26T17:27:38.693Z,100778.02
2019-06-26T17:30:43.546Z,100775.28
2019-06-26T17:33:48.609Z,100772.09
2019-06-26T17:36:53.441Z,100771.20
2019-06-26T17:39:58.576Z,100767.88
2019-06-26T17:43:12.514Z,100769.25
2019-06-26T17:46:10.312Z,100769.48
2019-06-26T17:49:16.126Z,100773.54
2019-06-26T17:52:20.894Z,100772.83
2019-06-26T17:55:25.703Z,100771.42
2019-06-26T17:58:30.477Z,100768.48
2019-06-26T18:01:35.492Z,100769.05
2019-06-26T18:04:40.272Z,100764.61
2019-06-26T18:07:45.382Z,100768.77
2019-06-26T18:10:50.866Z,100776.09
2019-06-26T18:13:55.682Z,100773.28
2019-06-26T18:17:00.847Z,100777.64
2019-06-26T18:20:06.263Z,100779.05
2019-06-26T18:23:12.442Z,100775.27
2019-06-26T18:26:17.206Z,100779.11
2019-06-26T18:29:22.265Z,100780.28
2019-06-26T18:32:27.885Z,100782.10
2019-06-26T18:35:33.346Z,100783.11
2019-06-26T18:38:38.115Z,100784.39
2019-06-26T18:41:43.705Z,100788.61
2019-06-26T18:44:48.449Z,100797.80
2019-06-26T18:47:54.115Z,100798.05
2019-06-26T18:50:59.409Z,100794.23
2019-06-26T18:54:04.553Z,100803.92
2019-06-26T18:57:09.281Z,100801.92
2019-06-26T19:00:15.591Z,100809.95
2019-06-26T19:03:20.341Z,100811.48
2019-06-26T19:06:25.189Z,100811.13
2019-06-26T19:09:30.631Z,100809.16
2019-06-26T19:12:35.928Z,100809.27
2019-06-26T19:15:41.746Z,100809.42
2019-06-26T19:18:47.384Z,100809.74
2019-06-26T19:21:52.168Z,100811.03
2019-06-26T19:24:57.166Z,100816.08
2019-06-26T19:28:01.892Z,100818.02
2019-06-26T19:31:06.730Z,100817.45
2019-06-26T19:34:11.466Z,100821.28
2019-06-26T19:37:16.474Z,100826.05
2019-06-26T19:40:23.933Z,100823.41
2019-06-26T19:43:28.104Z,100819.45
2019-06-26T19:46:32.923Z,100823.57
2019-06-26T19:49:37.728Z,100828.91
2019-06-26T19:52:42.492Z,100843.49
2019-06-26T19:55:47.678Z,100848.97
2019-06-26T19:58:52.615Z,100856.75
2019-06-26T20:01:57.671Z,100855.10
2019-06-26T20:05:02.428Z,100859.95
2019-06-26T20:08:07.267Z,100855.69
2019-06-26T20:11:12.838Z,100862.88
2019-06-26T20:14:17.636Z,100860.25
2019-06-26T20:23:33.797Z,100858.17
2019-06-26T20:29:43.845Z,100859.14
2019-06-26T21:12:57.261Z,100868.94
2019-06-26T21:16:02.304Z,100869.34
2019-06-26T21:25:19.421Z,100870.95
2019-06-26T22:24:56.192Z,100898.89
2019-06-26T22:28:01.007Z,100896.79
2019-06-26T23:17:24.266Z,100926.37
2019-06-26T23:23:33.969Z,100921.47
2019-06-26T23:29:43.816Z,100917.64
2019-06-26T23:35:53.773Z,100930.66
